sensor_id;sensor_type;location;lat;lon;timestamp;temperature;humidity
52963;DHT22;38827;53.024;6.596;2023-02-18T00:00:57;7.80;75.70
52963;DHT22;38827;53.024;6.596;2023-02-18T00:03:25;7.80;75.80
52963;DHT22;38827;53.024;6.596;2023-02-18T00:05:51;7.80;75.80
52963;DHT22;38827;53.024;6.596;2023-02-18T00:08:17;7.80;75.80
52963;DHT22;38827;53.024;6.596;2023-02-18T00:10:43;7.80;75.70
52963;DHT22;38827;53.024;6.596;2023-02-18T00:13:09;7.80;75.80
52963;DHT22;38827;53.024;6.596;2023-02-18T00:15:35;7.80;75.90
52963;DHT22;38827;53.024;6.596;2023-02-18T00:18:01;7.80;75.80
52963;DHT22;38827;53.024;6.596;2023-02-18T00:20:27;7.80;75.90
52963;DHT22;38827;53.024;6.596;2023-02-18T00:22:52;7.80;75.80
52963;DHT22;38827;53.024;6.596;2023-02-18T00:25:18;7.80;75.90
52963;DHT22;38827;53.024;6.596;2023-02-18T00:27:44;7.90;75.90
52963;DHT22;38827;53.024;6.596;2023-02-18T00:30:10;7.90;75.90
52963;DHT22;38827;53.024;6.596;2023-02-18T00:32:35;7.90;75.90
52963;DHT22;38827;53.024;6.596;2023-02-18T00:35:02;7.80;76.10
52963;DHT22;38827;53.024;6.596;2023-02-18T00:37:28;7.80;76.10
52963;DHT22;38827;53.024;6.596;2023-02-18T00:39:53;7.90;76.10
52963;DHT22;38827;53.024;6.596;2023-02-18T00:42:19;7.90;76.20
52963;DHT22;38827;53.024;6.596;2023-02-18T00:44:45;7.90;76.20
52963;DHT22;38827;53.024;6.596;2023-02-18T00:47:11;7.90;76.30
52963;DHT22;38827;53.024;6.596;2023-02-18T00:49:37;7.90;76.30
52963;DHT22;38827;53.024;6.596;2023-02-18T00:52:03;7.90;76.40
52963;DHT22;38827;53.024;6.596;2023-02-18T00:54:29;7.80;76.50
52963;DHT22;38827;53.024;6.596;2023-02-18T00:56:54;7.80;76.50
52963;DHT22;38827;53.024;6.596;2023-02-18T00:59:20;7.80;76.70
52963;DHT22;38827;53.024;6.596;2023-02-18T01:01:46;7.80;76.80
52963;DHT22;38827;53.024;6.596;2023-02-18T01:04:13;7.80;76.80
52963;DHT22;38827;53.024;6.596;2023-02-18T01:06:39;7.80;77.00
52963;DHT22;38827;53.024;6.596;2023-02-18T01:09:05;7.80;77.10
52963;DHT22;38827;53.024;6.596;2023-02-18T01:11:31;7.80;77.10
52963;DHT22;38827;53.024;6.596;2023-02-18T01:13:57;7.80;77.20
52963;DHT22;38827;53.024;6.596;2023-02-18T01:16:23;7.80;77.10
52963;DHT22;38827;53.024;6.596;2023-02-18T01:18:49;7.70;77.40
52963;DHT22;38827;53.024;6.596;2023-02-18T01:21:15;7.70;77.50
52963;DHT22;38827;53.024;6.596;2023-02-18T01:23:42;7.70;77.80
52963;DHT22;38827;53.024;6.596;2023-02-18T01:26:09;7.80;77.80
52963;DHT22;38827;53.024;6.596;2023-02-18T01:28:34;7.80;77.90
52963;DHT22;38827;53.024;6.596;2023-02-18T01:31:06;7.80;78.10
52963;DHT22;38827;53.024;6.596;2023-02-18T01:33:32;7.80;78.10
52963;DHT22;38827;53.024;6.596;2023-02-18T01:35:58;7.80;78.30
52963;DHT22;38827;53.024;6.596;2023-02-18T01:38:25;7.90;78.40
52963;DHT22;38827;53.024;6.596;2023-02-18T01:40:52;7.90;78.60
52963;DHT22;38827;53.024;6.596;2023-02-18T01:43:21;7.90;78.80
52963;DHT22;38827;53.024;6.596;2023-02-18T01:45:53;8.00;78.90
52963;DHT22;38827;53.024;6.596;2023-02-18T01:48:25;8.00;79.00
52963;DHT22;38827;53.024;6.596;2023-02-18T01:51:01;8.00;79.00
52963;DHT22;38827;53.024;6.596;2023-02-18T01:53:35;8.00;79.20
52963;DHT22;38827;53.024;6.596;2023-02-18T01:56:06;8.00;79.20
52963;DHT22;38827;53.024;6.596;2023-02-18T01:58:33;8.10;79.40
52963;DHT22;38827;53.024;6.596;2023-02-18T02:00:58;8.10;79.30
52963;DHT22;38827;53.024;6.596;2023-02-18T02:03:24;8.10;79.60
52963;DHT22;38827;53.024;6.596;2023-02-18T02:05:50;8.10;79.70
52963;DHT22;38827;53.024;6.596;2023-02-18T02:08:15;8.10;79.70
52963;DHT22;38827;53.024;6.596;2023-02-18T02:10:55;8.10;79.80
52963;DHT22;38827;53.024;6.596;2023-02-18T02:14:03;8.20;80.00
52963;DHT22;38827;53.024;6.596;2023-02-18T02:16:44;8.10;79.90
52963;DHT22;38827;53.024;6.596;2023-02-18T02:36:25;8.20;80.70
52963;DHT22;38827;53.024;6.596;2023-02-18T02:41:58;8.30;81.00
52963;DHT22;38827;53.024;6.596;2023-02-18T02:50:27;8.30;81.00
52963;DHT22;38827;53.024;6.596;2023-02-18T02:52:59;8.30;81.10
52963;DHT22;38827;53.024;6.596;2023-02-18T02:55:26;8.40;81.20
52963;DHT22;38827;53.024;6.596;2023-02-18T02:57:54;8.40;81.30
52963;DHT22;38827;53.024;6.596;2023-02-18T03:00:27;8.40;81.20
52963;DHT22;38827;53.024;6.596;2023-02-18T03:03:38;8.40;81.40
52963;DHT22;38827;53.024;6.596;2023-02-18T03:06:09;8.50;81.20
52963;DHT22;38827;53.024;6.596;2023-02-18T03:11:42;8.50;81.50
52963;DHT22;38827;53.024;6.596;2023-02-18T03:14:32;8.50;81.50
52963;DHT22;38827;53.024;6.596;2023-02-18T03:17:09;8.50;81.30
52963;DHT22;38827;53.024;6.596;2023-02-18T03:19:41;8.50;81.40
52963;DHT22;38827;53.024;6.596;2023-02-18T03:22:20;8.50;81.50
52963;DHT22;38827;53.024;6.596;2023-02-18T03:24:53;8.60;81.50
52963;DHT22;38827;53.024;6.596;2023-02-18T03:27:51;8.60;81.50
52963;DHT22;38827;53.024;6.596;2023-02-18T03:30:30;8.60;81.30
52963;DHT22;38827;53.024;6.596;2023-02-18T03:33:03;8.60;81.40
52963;DHT22;38827;53.024;6.596;2023-02-18T03:35:30;8.60;81.40
52963;DHT22;38827;53.024;6.596;2023-02-18T03:38:01;8.60;81.40
52963;DHT22;38827;53.024;6.596;2023-02-18T03:40:29;8.60;81.40
52963;DHT22;38827;53.024;6.596;2023-02-18T03:42:58;8.60;81.40
52963;DHT22;38827;53.024;6.596;2023-02-18T03:45:25;8.70;81.50
52963;DHT22;38827;53.024;6.596;2023-02-18T03:47:51;8.70;81.60
52963;DHT22;38827;53.024;6.596;2023-02-18T03:50:17;8.70;81.60
52963;DHT22;38827;53.024;6.596;2023-02-18T03:52:43;8.70;81.70
52963;DHT22;38827;53.024;6.596;2023-02-18T03:55:09;8.70;81.70
52963;DHT22;38827;53.024;6.596;2023-02-18T03:57:34;8.70;81.90
52963;DHT22;38827;53.024;6.596;2023-02-18T04:00:00;8.70;81.90
52963;DHT22;38827;53.024;6.596;2023-02-18T04:02:26;8.70;82.00
52963;DHT22;38827;53.024;6.596;2023-02-18T04:04:52;8.80;82.20
52963;DHT22;38827;53.024;6.596;2023-02-18T04:07:19;8.80;82.40
52963;DHT22;38827;53.024;6.596;2023-02-18T04:09:45;8.80;82.40
52963;DHT22;38827;53.024;6.596;2023-02-18T04:12:11;8.80;82.50
52963;DHT22;38827;53.024;6.596;2023-02-18T04:14:37;8.90;82.80
52963;DHT22;38827;53.024;6.596;2023-02-18T04:17:02;8.90;82.90
52963;DHT22;38827;53.024;6.596;2023-02-18T04:19:28;8.90;82.90
52963;DHT22;38827;53.024;6.596;2023-02-18T04:21:54;8.90;83.00
52963;DHT22;38827;53.024;6.596;2023-02-18T04:24:19;8.90;83.40
52963;DHT22;38827;53.024;6.596;2023-02-18T04:27:03;9.00;83.50
52963;DHT22;38827;53.024;6.596;2023-02-18T04:29:44;9.00;83.70
52963;DHT22;38827;53.024;6.596;2023-02-18T04:32:22;9.00;83.90
52963;DHT22;38827;53.024;6.596;2023-02-18T04:34:48;9.00;83.90
52963;DHT22;38827;53.024;6.596;2023-02-18T04:37:13;9.00;84.10
52963;DHT22;38827;53.024;6.596;2023-02-18T04:39:59;9.00;84.30
52963;DHT22;38827;53.024;6.596;2023-02-18T04:42:25;9.00;84.70
52963;DHT22;38827;53.024;6.596;2023-02-18T04:44:54;9.00;84.90
52963;DHT22;38827;53.024;6.596;2023-02-18T04:47:21;9.00;85.10
52963;DHT22;38827;53.024;6.596;2023-02-18T04:49:46;9.10;85.10
52963;DHT22;38827;53.024;6.596;2023-02-18T04:52:12;9.00;85.90
52963;DHT22;38827;53.024;6.596;2023-02-18T04:54:38;9.00;85.50
52963;DHT22;38827;53.024;6.596;2023-02-18T04:57:04;9.00;85.60
52963;DHT22;38827;53.024;6.596;2023-02-18T04:59:29;9.00;85.80
52963;DHT22;38827;53.024;6.596;2023-02-18T05:01:55;9.00;85.90
52963;DHT22;38827;53.024;6.596;2023-02-18T05:04:21;9.00;86.00
52963;DHT22;38827;53.024;6.596;2023-02-18T05:06:47;9.10;86.20
52963;DHT22;38827;53.024;6.596;2023-02-18T05:09:13;9.10;86.30
52963;DHT22;38827;53.024;6.596;2023-02-18T05:11:38;9.10;86.50
52963;DHT22;38827;53.024;6.596;2023-02-18T05:14:04;9.10;86.70
52963;DHT22;38827;53.024;6.596;2023-02-18T05:16:30;9.10;86.90
52963;DHT22;38827;53.024;6.596;2023-02-18T05:18:57;9.20;87.10
52963;DHT22;38827;53.024;6.596;2023-02-18T05:21:23;9.10;87.30
52963;DHT22;38827;53.024;6.596;2023-02-18T05:23:48;9.10;87.20
52963;DHT22;38827;53.024;6.596;2023-02-18T05:26:14;9.20;87.50
52963;DHT22;38827;53.024;6.596;2023-02-18T05:28:43;9.20;87.60
52963;DHT22;38827;53.024;6.596;2023-02-18T05:31:08;9.20;87.80
52963;DHT22;38827;53.024;6.596;2023-02-18T05:33:34;9.20;87.80
52963;DHT22;38827;53.024;6.596;2023-02-18T05:36:00;9.20;88.00
52963;DHT22;38827;53.024;6.596;2023-02-18T05:38:26;9.20;88.10
52963;DHT22;38827;53.024;6.596;2023-02-18T05:40:51;9.20;88.20
52963;DHT22;38827;53.024;6.596;2023-02-18T05:43:17;9.20;88.30
52963;DHT22;38827;53.024;6.596;2023-02-18T05:45:43;9.20;88.30
52963;DHT22;38827;53.024;6.596;2023-02-18T05:48:09;9.20;88.50
52963;DHT22;38827;53.024;6.596;2023-02-18T05:50:36;9.20;88.60
52963;DHT22;38827;53.024;6.596;2023-02-18T05:53:02;9.20;88.70
52963;DHT22;38827;53.024;6.596;2023-02-18T05:55:29;9.20;88.80
52963;DHT22;38827;53.024;6.596;2023-02-18T05:57:55;9.20;88.80
52963;DHT22;38827;53.024;6.596;2023-02-18T06:00:20;9.20;89.20
52963;DHT22;38827;53.024;6.596;2023-02-18T06:02:46;9.20;89.20
52963;DHT22;38827;53.024;6.596;2023-02-18T06:05:12;9.20;89.30
52963;DHT22;38827;53.024;6.596;2023-02-18T06:07:38;9.20;89.00
52963;DHT22;38827;53.024;6.596;2023-02-18T06:10:04;9.20;89.60
52963;DHT22;38827;53.024;6.596;2023-02-18T06:12:30;9.30;89.40
52963;DHT22;38827;53.024;6.596;2023-02-18T06:14:55;9.30;89.60
52963;DHT22;38827;53.024;6.596;2023-02-18T06:17:24;9.30;89.70
52963;DHT22;38827;53.024;6.596;2023-02-18T06:19:53;9.30;89.60
52963;DHT22;38827;53.024;6.596;2023-02-18T06:22:19;9.30;89.80
52963;DHT22;38827;53.024;6.596;2023-02-18T06:24:46;9.30;90.10
52963;DHT22;38827;53.024;6.596;2023-02-18T06:27:12;9.40;90.30
52963;DHT22;38827;53.024;6.596;2023-02-18T06:29:44;9.40;90.20
52963;DHT22;38827;53.024;6.596;2023-02-18T06:32:31;9.40;90.30
52963;DHT22;38827;53.024;6.596;2023-02-18T06:35:08;9.50;90.20
52963;DHT22;38827;53.024;6.596;2023-02-18T06:38:02;9.50;90.30
52963;DHT22;38827;53.024;6.596;2023-02-18T06:40:31;9.50;90.40
52963;DHT22;38827;53.024;6.596;2023-02-18T06:42:57;9.60;90.30
52963;DHT22;38827;53.024;6.596;2023-02-18T06:45:28;9.60;90.30
52963;DHT22;38827;53.024;6.596;2023-02-18T06:47:54;9.60;90.50
52963;DHT22;38827;53.024;6.596;2023-02-18T06:54:12;9.70;90.40
52963;DHT22;38827;53.024;6.596;2023-02-18T06:56:50;9.70;90.70
52963;DHT22;38827;53.024;6.596;2023-02-18T06:59:15;9.70;90.50
52963;DHT22;38827;53.024;6.596;2023-02-18T07:01:47;9.70;90.50
52963;DHT22;38827;53.024;6.596;2023-02-18T07:04:19;9.70;90.50
52963;DHT22;38827;53.024;6.596;2023-02-18T07:06:45;9.70;90.30
52963;DHT22;38827;53.024;6.596;2023-02-18T07:09:13;9.70;90.50
52963;DHT22;38827;53.024;6.596;2023-02-18T07:11:39;9.70;90.60
52963;DHT22;38827;53.024;6.596;2023-02-18T07:14:05;9.70;90.70
52963;DHT22;38827;53.024;6.596;2023-02-18T07:17:00;9.70;90.70
52963;DHT22;38827;53.024;6.596;2023-02-18T07:19:53;9.80;90.60
52963;DHT22;38827;53.024;6.596;2023-02-18T07:22:26;9.80;90.70
52963;DHT22;38827;53.024;6.596;2023-02-18T07:25:14;9.80;91.00
52963;DHT22;38827;53.024;6.596;2023-02-18T07:27:45;9.80;91.00
52963;DHT22;38827;53.024;6.596;2023-02-18T07:30:16;9.90;91.10
52963;DHT22;38827;53.024;6.596;2023-02-18T07:32:48;9.90;91.00
52963;DHT22;38827;53.024;6.596;2023-02-18T07:35:16;9.90;91.00
52963;DHT22;38827;53.024;6.596;2023-02-18T07:37:56;9.90;90.90
52963;DHT22;38827;53.024;6.596;2023-02-18T07:40:22;9.90;90.90
52963;DHT22;38827;53.024;6.596;2023-02-18T07:42:54;9.90;91.00
52963;DHT22;38827;53.024;6.596;2023-02-18T07:45:22;9.90;90.90
52963;DHT22;38827;53.024;6.596;2023-02-18T07:48:15;9.90;90.80
52963;DHT22;38827;53.024;6.596;2023-02-18T07:50:45;9.90;90.70
52963;DHT22;38827;53.024;6.596;2023-02-18T07:53:13;9.90;90.70
52963;DHT22;38827;53.024;6.596;2023-02-18T07:55:42;9.90;90.70
52963;DHT22;38827;53.024;6.596;2023-02-18T07:58:23;9.90;90.60
52963;DHT22;38827;53.024;6.596;2023-02-18T08:00:55;9.90;90.60
52963;DHT22;38827;53.024;6.596;2023-02-18T08:03:36;9.90;90.60
52963;DHT22;38827;53.024;6.596;2023-02-18T08:11:44;9.90;90.30
52963;DHT22;38827;53.024;6.596;2023-02-18T08:14:49;9.90;90.10
52963;DHT22;38827;53.024;6.596;2023-02-18T08:17:32;9.80;90.00
52963;DHT22;38827;53.024;6.596;2023-02-18T08:23:28;9.80;90.10
52963;DHT22;38827;53.024;6.596;2023-02-18T08:26:20;9.80;90.10
52963;DHT22;38827;53.024;6.596;2023-02-18T08:28:46;9.80;89.60
52963;DHT22;38827;53.024;6.596;2023-02-18T08:31:18;9.80;89.60
52963;DHT22;38827;53.024;6.596;2023-02-18T08:33:47;9.90;89.30
52963;DHT22;38827;53.024;6.596;2023-02-18T08:36:13;9.90;89.40
52963;DHT22;38827;53.024;6.596;2023-02-18T08:38:38;9.90;89.20
52963;DHT22;38827;53.024;6.596;2023-02-18T08:41:06;9.90;89.10
52963;DHT22;38827;53.024;6.596;2023-02-18T08:43:34;9.90;89.10
52963;DHT22;38827;53.024;6.596;2023-02-18T08:46:03;9.90;88.90
52963;DHT22;38827;53.024;6.596;2023-02-18T08:48:29;9.90;89.00
52963;DHT22;38827;53.024;6.596;2023-02-18T08:50:55;9.90;88.80
52963;DHT22;38827;53.024;6.596;2023-02-18T08:53:21;9.90;88.80
52963;DHT22;38827;53.024;6.596;2023-02-18T08:55:47;9.90;88.80
52963;DHT22;38827;53.024;6.596;2023-02-18T08:58:12;9.90;88.90
52963;DHT22;38827;53.024;6.596;2023-02-18T09:00:41;9.90;89.00
52963;DHT22;38827;53.024;6.596;2023-02-18T09:06:07;9.90;89.20
52963;DHT22;38827;53.024;6.596;2023-02-18T09:08:33;9.90;89.20
52963;DHT22;38827;53.024;6.596;2023-02-18T09:11:03;9.90;89.30
52963;DHT22;38827;53.024;6.596;2023-02-18T09:13:32;9.90;89.20
52963;DHT22;38827;53.024;6.596;2023-02-18T09:16:14;9.90;89.10
52963;DHT22;38827;53.024;6.596;2023-02-18T09:18:43;9.90;89.10
52963;DHT22;38827;53.024;6.596;2023-02-18T09:21:11;9.80;89.40
52963;DHT22;38827;53.024;6.596;2023-02-18T09:23:40;9.80;89.50
52963;DHT22;38827;53.024;6.596;2023-02-18T09:26:09;9.80;89.70
52963;DHT22;38827;53.024;6.596;2023-02-18T09:28:37;9.70;89.60
52963;DHT22;38827;53.024;6.596;2023-02-18T09:31:08;9.70;89.90
52963;DHT22;38827;53.024;6.596;2023-02-18T09:33:36;9.70;90.10
52963;DHT22;38827;53.024;6.596;2023-02-18T09:36:02;9.70;90.10
52963;DHT22;38827;53.024;6.596;2023-02-18T09:38:27;9.70;90.10
52963;DHT22;38827;53.024;6.596;2023-02-18T09:40:53;9.70;90.30
52963;DHT22;38827;53.024;6.596;2023-02-18T09:43:32;9.60;90.40
52963;DHT22;38827;53.024;6.596;2023-02-18T09:46:03;9.70;90.30
52963;DHT22;38827;53.024;6.596;2023-02-18T09:48:36;9.70;90.20
52963;DHT22;38827;53.024;6.596;2023-02-18T09:51:02;9.70;90.30
52963;DHT22;38827;53.024;6.596;2023-02-18T09:53:29;9.70;90.40
52963;DHT22;38827;53.024;6.596;2023-02-18T09:55:56;9.70;90.40
52963;DHT22;38827;53.024;6.596;2023-02-18T09:58:30;9.70;90.40
52963;DHT22;38827;53.024;6.596;2023-02-18T10:03:44;9.70;90.60
52963;DHT22;38827;53.024;6.596;2023-02-18T10:06:25;9.70;90.40
52963;DHT22;38827;53.024;6.596;2023-02-18T10:08:52;9.70;90.40
52963;DHT22;38827;53.024;6.596;2023-02-18T10:11:27;9.60;90.70
52963;DHT22;38827;53.024;6.596;2023-02-18T10:13:54;9.60;90.50
52963;DHT22;38827;53.024;6.596;2023-02-18T10:16:21;9.70;90.50
52963;DHT22;38827;53.024;6.596;2023-02-18T10:18:54;9.70;90.40
52963;DHT22;38827;53.024;6.596;2023-02-18T10:21:24;9.80;90.20
52963;DHT22;38827;53.024;6.596;2023-02-18T10:24:03;9.80;90.00
52963;DHT22;38827;53.024;6.596;2023-02-18T10:26:36;9.80;89.70
52963;DHT22;38827;53.024;6.596;2023-02-18T10:29:03;9.90;89.40
52963;DHT22;38827;53.024;6.596;2023-02-18T10:31:36;9.90;89.30
52963;DHT22;38827;53.024;6.596;2023-02-18T10:50:34;10.30;86.50
52963;DHT22;38827;53.024;6.596;2023-02-18T10:53:35;10.40;86.80
52963;DHT22;38827;53.024;6.596;2023-02-18T10:56:02;10.60;86.00
52963;DHT22;38827;53.024;6.596;2023-02-18T10:58:32;10.70;86.10
52963;DHT22;38827;53.024;6.596;2023-02-18T11:01:00;10.80;85.40
52963;DHT22;38827;53.024;6.596;2023-02-18T11:03:43;10.80;85.00
52963;DHT22;38827;53.024;6.596;2023-02-18T11:06:42;10.80;84.60
52963;DHT22;38827;53.024;6.596;2023-02-18T11:09:51;10.80;84.30
52963;DHT22;38827;53.024;6.596;2023-02-18T11:17:41;10.90;84.00
52963;DHT22;38827;53.024;6.596;2023-02-18T11:20:33;11.00;83.90
52963;DHT22;38827;53.024;6.596;2023-02-18T11:25:35;11.10;83.50
52963;DHT22;38827;53.024;6.596;2023-02-18T11:28:21;11.10;83.20
52963;DHT22;38827;53.024;6.596;2023-02-18T11:30:59;11.20;83.10
52963;DHT22;38827;53.024;6.596;2023-02-18T11:33:44;11.20;82.90
52963;DHT22;38827;53.024;6.596;2023-02-18T11:41:31;11.20;82.20
52963;DHT22;38827;53.024;6.596;2023-02-18T11:43:58;11.20;82.30
52963;DHT22;38827;53.024;6.596;2023-02-18T11:46:27;11.20;82.20
52963;DHT22;38827;53.024;6.596;2023-02-18T11:48:54;11.20;82.20
52963;DHT22;38827;53.024;6.596;2023-02-18T11:51:26;11.10;81.90
52963;DHT22;38827;53.024;6.596;2023-02-18T11:56:26;11.20;81.70
52963;DHT22;38827;53.024;6.596;2023-02-18T11:58:53;11.20;81.70
52963;DHT22;38827;53.024;6.596;2023-02-18T12:04:13;11.20;81.30
52963;DHT22;38827;53.024;6.596;2023-02-18T12:06:53;11.10;81.20
52963;DHT22;38827;53.024;6.596;2023-02-18T12:09:45;11.10;81.20
52963;DHT22;38827;53.024;6.596;2023-02-18T12:12:25;11.10;80.90
52963;DHT22;38827;53.024;6.596;2023-02-18T12:14:54;11.10;81.30
52963;DHT22;38827;53.024;6.596;2023-02-18T12:17:49;11.20;81.10
52963;DHT22;38827;53.024;6.596;2023-02-18T12:20:51;11.20;80.60
52963;DHT22;38827;53.024;6.596;2023-02-18T12:27:24;11.20;80.90
52963;DHT22;38827;53.024;6.596;2023-02-18T13:41:49;11.80;76.60
52963;DHT22;38827;53.024;6.596;2023-02-18T14:22:32;11.80;76.80
52963;DHT22;38827;53.024;6.596;2023-02-18T14:27:49;11.90;76.60
52963;DHT22;38827;53.024;6.596;2023-02-18T14:32:44;11.80;76.40
52963;DHT22;38827;53.024;6.596;2023-02-18T14:35:51;11.70;76.20
52963;DHT22;38827;53.024;6.596;2023-02-18T14:49:43;11.80;75.40
52963;DHT22;38827;53.024;6.596;2023-02-18T14:54:59;11.70;75.30
52963;DHT22;38827;53.024;6.596;2023-02-18T15:00:41;11.60;75.00
52963;DHT22;38827;53.024;6.596;2023-02-18T15:03:14;11.50;75.50
52963;DHT22;38827;53.024;6.596;2023-02-18T15:05:41;11.40;75.70
52963;DHT22;38827;53.024;6.596;2023-02-18T15:08:23;11.30;76.30
52963;DHT22;38827;53.024;6.596;2023-02-18T15:10:55;11.30;76.30
52963;DHT22;38827;53.024;6.596;2023-02-18T15:13:39;11.20;76.20
52963;DHT22;38827;53.024;6.596;2023-02-18T15:16:13;11.20;76.30
52963;DHT22;38827;53.024;6.596;2023-02-18T15:18:42;11.20;76.20
52963;DHT22;38827;53.024;6.596;2023-02-18T15:21:34;11.10;76.40
52963;DHT22;38827;53.024;6.596;2023-02-18T15:26:44;11.10;76.40
52963;DHT22;38827;53.024;6.596;2023-02-18T15:29:18;11.10;76.60
52963;DHT22;38827;53.024;6.596;2023-02-18T15:31:46;11.10;76.50
52963;DHT22;38827;53.024;6.596;2023-02-18T15:34:38;11.00;76.80
52963;DHT22;38827;53.024;6.596;2023-02-18T15:37:07;11.00;76.00
52963;DHT22;38827;53.024;6.596;2023-02-18T15:39:34;10.90;76.60
52963;DHT22;38827;53.024;6.596;2023-02-18T15:45:33;10.90;76.40
52963;DHT22;38827;53.024;6.596;2023-02-18T15:54:49;10.80;76.70
52963;DHT22;38827;53.024;6.596;2023-02-18T15:57:18;10.80;76.90
52963;DHT22;38827;53.024;6.596;2023-02-18T16:05:11;10.70;77.00
52963;DHT22;38827;53.024;6.596;2023-02-18T16:12:29;10.60;77.50
52963;DHT22;38827;53.024;6.596;2023-02-18T16:15:01;10.60;77.50
52963;DHT22;38827;53.024;6.596;2023-02-18T16:17:30;10.50;77.70
52963;DHT22;38827;53.024;6.596;2023-02-18T16:20:36;10.50;77.70
52963;DHT22;38827;53.024;6.596;2023-02-18T16:32:07;10.40;77.70
52963;DHT22;38827;53.024;6.596;2023-02-18T16:34:51;10.30;77.90
52963;DHT22;38827;53.024;6.596;2023-02-18T16:37:34;10.30;77.70
52963;DHT22;38827;53.024;6.596;2023-02-18T16:56:45;10.10;78.40
52963;DHT22;38827;53.024;6.596;2023-02-18T16:59:11;10.10;78.70
52963;DHT22;38827;53.024;6.596;2023-02-18T17:01:42;10.00;78.80
52963;DHT22;38827;53.024;6.596;2023-02-18T17:04:39;10.00;78.90
52963;DHT22;38827;53.024;6.596;2023-02-18T17:11:00;10.00;78.80
52963;DHT22;38827;53.024;6.596;2023-02-18T17:13:36;10.00;78.80
52963;DHT22;38827;53.024;6.596;2023-02-18T17:16:28;10.00;79.00
52963;DHT22;38827;53.024;6.596;2023-02-18T17:19:15;10.00;78.90
52963;DHT22;38827;53.024;6.596;2023-02-18T17:21:45;10.00;79.00
52963;DHT22;38827;53.024;6.596;2023-02-18T17:24:12;10.00;79.10
52963;DHT22;38827;53.024;6.596;2023-02-18T17:26:39;10.00;79.20
52963;DHT22;38827;53.024;6.596;2023-02-18T17:32:37;9.90;79.20
52963;DHT22;38827;53.024;6.596;2023-02-18T17:35:18;9.90;79.60
52963;DHT22;38827;53.024;6.596;2023-02-18T17:37:44;9.90;79.50
52963;DHT22;38827;53.024;6.596;2023-02-18T17:40:19;9.90;79.60
52963;DHT22;38827;53.024;6.596;2023-02-18T17:42:45;9.90;79.60
52963;DHT22;38827;53.024;6.596;2023-02-18T17:56:39;9.80;79.60
52963;DHT22;38827;53.024;6.596;2023-02-18T18:14:44;9.70;79.80
52963;DHT22;38827;53.024;6.596;2023-02-18T18:35:33;9.70;80.30
52963;DHT22;38827;53.024;6.596;2023-02-18T18:38:25;9.70;80.50
52963;DHT22;38827;53.024;6.596;2023-02-18T18:40:52;9.70;81.00
52963;DHT22;38827;53.024;6.596;2023-02-18T18:50:18;9.50;81.80
52963;DHT22;38827;53.024;6.596;2023-02-18T19:00:53;9.40;82.30
52963;DHT22;38827;53.024;6.596;2023-02-18T19:04:05;9.40;82.40
52963;DHT22;38827;53.024;6.596;2023-02-18T19:16:54;9.30;82.90
52963;DHT22;38827;53.024;6.596;2023-02-18T19:23:52;9.40;82.70
52963;DHT22;38827;53.024;6.596;2023-02-18T19:26:39;9.40;82.70
52963;DHT22;38827;53.024;6.596;2023-02-18T19:42:47;9.30;82.90
52963;DHT22;38827;53.024;6.596;2023-02-18T19:45:56;9.30;83.00
52963;DHT22;38827;53.024;6.596;2023-02-18T19:48:28;9.30;82.90
52963;DHT22;38827;53.024;6.596;2023-02-18T20:06:20;9.30;82.80
52963;DHT22;38827;53.024;6.596;2023-02-18T20:08:58;9.30;82.90
52963;DHT22;38827;53.024;6.596;2023-02-18T20:11:43;9.30;82.80
52963;DHT22;38827;53.024;6.596;2023-02-18T20:14:28;9.40;82.80
52963;DHT22;38827;53.024;6.596;2023-02-18T20:57:02;9.40;83.20
52963;DHT22;38827;53.024;6.596;2023-02-18T20:59:32;9.50;83.20
52963;DHT22;38827;53.024;6.596;2023-02-18T21:01:59;9.50;83.30
52963;DHT22;38827;53.024;6.596;2023-02-18T21:04:25;9.50;83.50
52963;DHT22;38827;53.024;6.596;2023-02-18T21:06:51;9.50;83.70
52963;DHT22;38827;53.024;6.596;2023-02-18T21:09:35;9.40;83.70
52963;DHT22;38827;53.024;6.596;2023-02-18T21:12:09;9.50;83.70
52963;DHT22;38827;53.024;6.596;2023-02-18T21:14:35;9.50;83.80
52963;DHT22;38827;53.024;6.596;2023-02-18T21:17:01;9.50;84.10
52963;DHT22;38827;53.024;6.596;2023-02-18T21:19:28;9.50;84.30
52963;DHT22;38827;53.024;6.596;2023-02-18T21:21:53;9.50;84.40
52963;DHT22;38827;53.024;6.596;2023-02-18T21:24:19;9.50;84.60
52963;DHT22;38827;53.024;6.596;2023-02-18T21:26:45;9.50;84.90
52963;DHT22;38827;53.024;6.596;2023-02-18T21:29:10;9.50;85.10
52963;DHT22;38827;53.024;6.596;2023-02-18T21:31:39;9.50;85.20
52963;DHT22;38827;53.024;6.596;2023-02-18T21:34:11;9.50;85.30
52963;DHT22;38827;53.024;6.596;2023-02-18T21:36:37;9.50;85.60
52963;DHT22;38827;53.024;6.596;2023-02-18T21:39:06;9.50;85.60
52963;DHT22;38827;53.024;6.596;2023-02-18T21:41:37;9.60;85.90
52963;DHT22;38827;53.024;6.596;2023-02-18T21:44:03;9.60;86.10
52963;DHT22;38827;53.024;6.596;2023-02-18T21:46:33;9.60;86.20
52963;DHT22;38827;53.024;6.596;2023-02-18T21:48:59;9.60;86.30
52963;DHT22;38827;53.024;6.596;2023-02-18T21:51:56;9.60;86.40
52963;DHT22;38827;53.024;6.596;2023-02-18T21:54:33;9.60;86.50
52963;DHT22;38827;53.024;6.596;2023-02-18T21:57:02;9.60;86.60
52963;DHT22;38827;53.024;6.596;2023-02-18T21:59:30;9.60;86.80
52963;DHT22;38827;53.024;6.596;2023-02-18T22:02:00;9.60;86.90
52963;DHT22;38827;53.024;6.596;2023-02-18T22:04:28;9.60;87.00
52963;DHT22;38827;53.024;6.596;2023-02-18T22:13:52;9.60;87.30
52963;DHT22;38827;53.024;6.596;2023-02-18T22:16:19;9.60;87.50
52963;DHT22;38827;53.024;6.596;2023-02-18T22:19:00;9.60;87.50
52963;DHT22;38827;53.024;6.596;2023-02-18T22:21:53;9.60;87.60
52963;DHT22;38827;53.024;6.596;2023-02-18T22:24:33;9.60;87.60
52963;DHT22;38827;53.024;6.596;2023-02-18T22:31:15;9.60;87.80
52963;DHT22;38827;53.024;6.596;2023-02-18T22:33:51;9.60;87.80
52963;DHT22;38827;53.024;6.596;2023-02-18T22:36:19;9.60;87.90
52963;DHT22;38827;53.024;6.596;2023-02-18T22:39:06;9.60;88.00
52963;DHT22;38827;53.024;6.596;2023-02-18T22:41:41;9.60;87.80
52963;DHT22;38827;53.024;6.596;2023-02-18T22:44:10;9.60;88.00
52963;DHT22;38827;53.024;6.596;2023-02-18T22:46:42;9.60;88.00
52963;DHT22;38827;53.024;6.596;2023-02-18T22:49:13;9.60;88.20
52963;DHT22;38827;53.024;6.596;2023-02-18T22:51:45;9.60;88.20
52963;DHT22;38827;53.024;6.596;2023-02-18T22:54:13;9.60;88.30
52963;DHT22;38827;53.024;6.596;2023-02-18T22:56:48;9.60;88.50
52963;DHT22;38827;53.024;6.596;2023-02-18T22:59:15;9.60;88.50
52963;DHT22;38827;53.024;6.596;2023-02-18T23:01:47;9.50;88.70
52963;DHT22;38827;53.024;6.596;2023-02-18T23:04:19;9.50;88.70
52963;DHT22;38827;53.024;6.596;2023-02-18T23:06:46;9.50;88.90
52963;DHT22;38827;53.024;6.596;2023-02-18T23:09:23;9.50;88.70
52963;DHT22;38827;53.024;6.596;2023-02-18T23:11:58;9.50;88.70
52963;DHT22;38827;53.024;6.596;2023-02-18T23:14:42;9.40;88.90
52963;DHT22;38827;53.024;6.596;2023-02-18T23:17:08;9.40;88.70
52963;DHT22;38827;53.024;6.596;2023-02-18T23:19:49;9.40;88.60
52963;DHT22;38827;53.024;6.596;2023-02-18T23:22:30;9.50;88.70